createdAt,value
2023-04-08T00:00:09.340Z,23.90
2023-04-08T00:03:03.128Z,24.00
2023-04-08T00:05:32.025Z,27.70
2023-04-08T00:08:00.897Z,27.30
2023-04-08T00:10:29.483Z,26.50
2023-04-08T00:12:58.070Z,24.00
2023-04-08T00:15:27.171Z,26.20
2023-04-08T00:17:55.814Z,27.30
2023-04-08T00:20:25.468Z,29.30
2023-04-08T00:22:54.046Z,32.00
2023-04-08T00:25:24.775Z,29.10
2023-04-08T00:27:54.081Z,29.30
2023-04-08T00:30:22.767Z,30.00
2023-04-08T00:32:51.606Z,29.80
2023-04-08T00:35:20.585Z,29.20
2023-04-08T00:37:50.168Z,24.00
2023-04-08T00:40:18.851Z,25.00
2023-04-08T00:42:47.538Z,30.50
2023-04-08T00:45:16.869Z,31.60
2023-04-08T00:47:46.902Z,33.50
2023-04-08T00:50:16.153Z,31.00
2023-04-08T00:52:44.740Z,34.90
2023-04-08T00:55:13.430Z,37.40
2023-04-08T00:57:42.441Z,31.90
2023-04-08T01:00:12.145Z,33.80
2023-04-08T01:03:12.071Z,33.30
2023-04-08T01:05:44.426Z,33.20
2023-04-08T01:08:14.137Z,31.30
2023-04-08T01:10:46.021Z,30.10
2023-04-08T01:13:18.675Z,39.50
2023-04-08T01:15:47.299Z,38.40
2023-04-08T01:18:17.620Z,35.40
2023-04-08T01:20:47.669Z,35.90
2023-04-08T01:23:47.318Z,36.60
2023-04-08T01:26:24.767Z,42.70
2023-04-08T01:28:59.517Z,37.90
2023-04-08T01:31:29.464Z,39.70
2023-04-08T01:34:02.825Z,31.20
2023-04-08T01:36:33.317Z,31.70
2023-04-08T01:39:05.782Z,42.00
2023-04-08T01:41:36.931Z,37.20
2023-04-08T01:44:06.217Z,41.70
2023-04-08T01:46:36.065Z,39.90
2023-04-08T01:49:06.754Z,38.40
2023-04-08T01:51:39.799Z,41.80
2023-04-08T01:54:08.536Z,38.20
2023-04-08T01:56:41.708Z,42.10
2023-04-08T01:59:16.088Z,44.00
2023-04-08T02:01:45.690Z,39.50
2023-04-08T02:04:14.519Z,38.60
2023-04-08T02:06:43.951Z,35.00
2023-04-08T02:09:12.532Z,40.90
2023-04-08T02:11:41.425Z,42.00
2023-04-08T02:14:10.214Z,43.80
2023-04-08T02:17:02.259Z,34.90
2023-04-08T02:19:44.361Z,40.60
2023-04-08T02:22:48.773Z,41.30
2023-04-08T02:25:23.357Z,43.70
2023-04-08T02:27:54.930Z,38.60
2023-04-08T02:30:26.090Z,41.90
2023-04-08T02:32:57.223Z,41.50
2023-04-08T02:35:27.852Z,40.00
2023-04-08T02:37:56.560Z,41.00
2023-04-08T02:40:31.812Z,41.50
2023-04-08T02:43:00.691Z,41.10
2023-04-08T02:45:38.439Z,36.40
2023-04-08T02:48:07.677Z,38.30
2023-04-08T02:50:36.305Z,38.40
2023-04-08T02:53:04.966Z,39.20
2023-04-08T02:55:34.677Z,42.20
2023-04-08T02:58:03.362Z,41.20
2023-04-08T03:00:32.457Z,40.40
2023-04-08T03:03:01.609Z,41.00
2023-04-08T03:05:30.646Z,38.60
2023-04-08T03:07:59.644Z,33.10
2023-04-08T03:10:28.227Z,38.80
2023-04-08T03:12:56.816Z,38.00
2023-04-08T03:15:25.397Z,42.60
2023-04-08T03:17:54.037Z,40.20
2023-04-08T03:20:22.681Z,39.10
2023-04-08T03:22:51.247Z,40.40
2023-04-08T03:25:19.840Z,41.10
2023-04-08T03:27:48.419Z,42.10
2023-04-08T03:30:17.314Z,41.50
2023-04-08T03:32:46.268Z,39.50
2023-04-08T03:35:15.100Z,39.00
2023-04-08T03:37:43.678Z,43.10
2023-04-08T03:40:13.526Z,41.30
2023-04-08T03:42:42.077Z,37.40
2023-04-08T03:45:11.074Z,38.20
2023-04-08T03:47:39.816Z,36.50
2023-04-08T03:50:09.572Z,37.50
2023-04-08T03:52:38.153Z,36.50
2023-04-08T03:55:07.552Z,36.90
2023-04-08T03:57:36.143Z,37.30
2023-04-08T04:00:05.644Z,35.20
2023-04-08T04:02:41.147Z,34.90
2023-04-08T04:05:10.084Z,34.90
2023-04-08T04:07:38.669Z,38.30
2023-04-08T04:10:08.960Z,34.90
2023-04-08T04:12:37.484Z,36.50
2023-04-08T04:15:07.286Z,37.50
2023-04-08T04:17:35.894Z,32.90
2023-04-08T04:20:08.625Z,35.80
2023-04-08T04:22:37.137Z,36.50
2023-04-08T04:25:06.708Z,35.60
2023-04-08T04:27:36.993Z,36.90
2023-04-08T04:30:07.414Z,36.30
2023-04-08T04:32:36.014Z,38.10
2023-04-08T04:35:05.413Z,30.30
2023-04-08T04:37:33.973Z,36.30
2023-04-08T04:40:05.151Z,36.10
2023-04-08T04:42:33.902Z,34.80
2023-04-08T04:45:02.767Z,35.90
2023-04-08T04:47:33.003Z,32.60
2023-04-08T04:50:01.977Z,30.10
2023-04-08T04:52:31.104Z,32.40
2023-04-08T04:54:59.697Z,30.20
2023-04-08T04:57:28.483Z,44.70
2023-04-08T04:59:57.063Z,39.90
2023-04-08T05:02:26.019Z,39.00
2023-04-08T05:04:55.978Z,38.10
2023-04-08T05:07:24.867Z,38.00
2023-04-08T05:09:54.636Z,31.10
2023-04-08T05:12:23.182Z,27.70
2023-04-08T05:14:51.882Z,26.00
2023-04-08T05:17:20.547Z,30.20
2023-04-08T05:19:49.023Z,32.20
2023-04-08T05:22:17.610Z,29.60
2023-04-08T05:24:46.544Z,30.10
2023-04-08T05:27:15.088Z,26.20
2023-04-08T05:29:43.874Z,28.10
2023-04-08T05:32:12.458Z,24.30
2023-04-08T05:34:41.453Z,24.70
2023-04-08T05:37:09.949Z,22.00
2023-04-08T05:39:38.725Z,23.60
2023-04-08T05:42:07.313Z,21.50
2023-04-08T05:44:36.317Z,23.90
2023-04-08T05:47:04.974Z,23.60
2023-04-08T05:49:34.615Z,27.70
2023-04-08T05:52:04.114Z,31.60
2023-04-08T05:54:32.943Z,29.60
2023-04-08T05:57:01.482Z,29.70
2023-04-08T05:59:30.160Z,22.10
2023-04-08T06:01:58.734Z,25.30
2023-04-08T06:04:27.581Z,24.50
2023-04-08T06:07:00.011Z,22.30
2023-04-08T06:09:28.591Z,25.10
2023-04-08T06:11:57.790Z,25.80
2023-04-08T06:14:26.372Z,28.30
2023-04-08T06:16:57.898Z,23.00
2023-04-08T06:19:26.715Z,18.90
2023-04-08T06:21:59.333Z,20.90
2023-04-08T06:24:29.661Z,21.40
2023-04-08T06:26:58.819Z,20.50
2023-04-08T06:29:27.525Z,18.80
2023-04-08T06:31:56.750Z,21.50
2023-04-08T06:34:25.494Z,21.90
2023-04-08T06:36:53.983Z,22.60
2023-04-08T06:39:22.456Z,21.80
2023-04-08T06:41:51.354Z,21.80
2023-04-08T06:44:36.336Z,21.00
2023-04-08T06:47:05.009Z,20.90
2023-04-08T06:49:33.691Z,20.50
2023-04-08T06:52:02.272Z,22.90
2023-04-08T06:54:30.860Z,19.40
2023-04-08T06:56:59.647Z,20.40
2023-04-08T06:59:28.232Z,17.80
2023-04-08T07:01:57.061Z,15.90
2023-04-08T07:04:26.321Z,18.50
2023-04-08T07:06:54.869Z,19.30
2023-04-08T07:09:23.599Z,16.80
2023-04-08T07:11:52.288Z,16.00
2023-04-08T07:14:20.870Z,16.70
2023-04-08T07:16:49.583Z,16.10
2023-04-08T07:19:18.343Z,16.40
2023-04-08T07:21:47.133Z,19.00
2023-04-08T07:24:16.388Z,19.00
2023-04-08T07:26:45.555Z,22.90
2023-04-08T07:29:14.114Z,21.70
2023-04-08T07:31:45.877Z,20.20
2023-04-08T07:34:14.461Z,21.20
2023-04-08T07:36:43.359Z,19.10
2023-04-08T07:39:11.934Z,19.80
2023-04-08T07:41:40.624Z,16.30
2023-04-08T07:44:09.205Z,18.70
2023-04-08T07:46:39.437Z,17.70
2023-04-08T07:49:08.119Z,19.40
2023-04-08T07:51:36.704Z,19.80
2023-04-08T07:54:05.491Z,21.90
2023-04-08T07:56:34.076Z,19.90
2023-04-08T07:59:02.866Z,19.80
2023-04-08T08:01:35.091Z,22.10
2023-04-08T08:04:04.488Z,17.90
2023-04-08T08:06:33.025Z,22.30
2023-04-08T08:09:01.610Z,22.70
2023-04-08T08:11:30.402Z,20.90
2023-04-08T08:13:59.087Z,22.30
2023-04-08T08:16:32.347Z,55.60
2023-04-08T08:19:01.731Z,24.80
2023-04-08T08:21:30.365Z,19.50
2023-04-08T08:23:59.973Z,21.20
2023-04-08T08:26:28.968Z,19.60
2023-04-08T08:28:57.656Z,17.00
2023-04-08T08:31:26.194Z,16.30
2023-04-08T08:33:54.930Z,19.50
2023-04-08T08:36:23.619Z,20.60
2023-04-08T08:38:53.856Z,19.50
2023-04-08T08:41:22.523Z,14.50
2023-04-08T08:43:52.307Z,17.50
2023-04-08T08:46:21.896Z,18.90
2023-04-08T08:48:50.734Z,20.80
2023-04-08T08:51:19.628Z,21.30
2023-04-08T08:53:48.326Z,19.60
2023-04-08T08:56:18.677Z,20.90
2023-04-08T08:58:48.043Z,15.10
2023-04-08T09:01:49.178Z,17.80
2023-04-08T09:04:20.894Z,16.40
2023-04-08T09:07:04.999Z,15.10
2023-04-08T09:09:53.258Z,15.20
2023-04-08T09:12:22.678Z,13.50
2023-04-08T09:14:52.007Z,16.50
2023-04-08T09:17:47.380Z,17.20
2023-04-08T09:20:16.463Z,24.20
2023-04-08T09:22:54.067Z,17.10
2023-04-08T09:25:34.213Z,18.50
2023-04-08T09:28:03.504Z,16.40
2023-04-08T09:30:33.200Z,13.50
2023-04-08T09:33:04.712Z,13.10
2023-04-08T09:35:33.278Z,15.70
2023-04-08T09:38:02.860Z,22.60
2023-04-08T09:40:38.516Z,23.00
2023-04-08T09:43:12.422Z,15.50
2023-04-08T09:45:43.278Z,15.10
2023-04-08T09:48:24.959Z,17.60
2023-04-08T09:50:58.126Z,16.50
2023-04-08T09:53:41.890Z,17.80
2023-04-08T09:56:13.308Z,21.60
2023-04-08T09:58:54.499Z,49.30
2023-04-08T10:01:40.366Z,18.90
2023-04-08T10:04:16.221Z,27.70
2023-04-08T10:06:46.311Z,18.30
2023-04-08T10:09:15.067Z,19.10
2023-04-08T10:11:43.960Z,20.50
2023-04-08T10:14:12.952Z,19.30
2023-04-08T10:16:41.668Z,15.00
2023-04-08T10:19:43.304Z,15.80
2023-04-08T10:22:30.728Z,20.60
2023-04-08T10:25:17.538Z,18.50
2023-04-08T10:27:46.861Z,14.30
2023-04-08T10:30:33.650Z,17.00
2023-04-08T10:33:02.441Z,18.90
2023-04-08T10:35:35.140Z,16.50
2023-04-08T10:38:04.324Z,17.50
2023-04-08T10:40:39.202Z,23.00
2023-04-08T10:43:08.452Z,29.60
2023-04-08T10:45:37.833Z,37.90
2023-04-08T10:48:22.753Z,39.40
2023-04-08T10:50:59.742Z,18.00
2023-04-08T10:53:36.037Z,32.00
2023-04-08T10:56:16.672Z,20.90
2023-04-08T10:58:56.835Z,17.70
2023-04-08T11:01:26.492Z,18.10
2023-04-08T11:03:55.409Z,15.80
2023-04-08T11:06:25.209Z,17.60
2023-04-08T11:08:53.792Z,15.90
2023-04-08T11:11:23.090Z,16.20
2023-04-08T11:13:53.634Z,14.20
2023-04-08T11:16:23.631Z,26.70
2023-04-08T11:18:53.864Z,32.10
2023-04-08T11:21:29.848Z,21.40
2023-04-08T11:23:58.609Z,13.60
2023-04-08T11:26:28.137Z,14.30
2023-04-08T11:28:58.798Z,15.40
2023-04-08T11:31:28.212Z,30.00
2023-04-08T11:33:57.039Z,37.70
2023-04-08T11:36:27.523Z,38.70
2023-04-08T11:38:56.174Z,28.90
2023-04-08T11:41:24.947Z,20.80
2023-04-08T11:43:57.530Z,14.40
2023-04-08T11:46:26.320Z,17.40
2023-04-08T11:49:04.243Z,28.60
2023-04-08T11:51:35.094Z,18.00
2023-04-08T11:54:09.808Z,19.80
2023-04-08T11:56:47.479Z,28.50
2023-04-08T11:59:16.169Z,60.50
2023-04-08T12:01:44.797Z,31.00
2023-04-08T12:04:13.798Z,23.50
2023-04-08T12:06:43.966Z,32.20
2023-04-08T12:09:12.876Z,51.40
2023-04-08T12:11:41.546Z,22.90
2023-04-08T12:14:10.255Z,20.20
2023-04-08T12:16:38.861Z,20.80
2023-04-08T12:19:07.818Z,21.40
2023-04-08T12:21:36.403Z,19.20
2023-04-08T12:24:05.187Z,19.90
2023-04-08T12:26:33.769Z,80.40
2023-04-08T12:29:02.670Z,26.30
2023-04-08T12:31:31.291Z,19.20
2023-04-08T12:33:59.934Z,24.20
2023-04-08T12:36:28.700Z,55.20
2023-04-08T12:38:57.617Z,33.50
2023-04-08T12:41:26.207Z,26.30
2023-04-08T12:43:54.797Z,33.50
2023-04-08T12:46:23.743Z,16.70
2023-04-08T12:49:03.083Z,19.30
2023-04-08T12:51:32.723Z,17.60
2023-04-08T12:54:03.449Z,18.90
2023-04-08T12:56:33.173Z,24.00
2023-04-08T12:59:01.960Z,21.80
2023-04-08T13:01:31.281Z,22.80
2023-04-08T13:04:00.537Z,28.10
2023-04-08T13:06:29.256Z,19.80
2023-04-08T13:08:58.050Z,28.40
2023-04-08T13:11:26.936Z,27.80
2023-04-08T13:13:55.524Z,21.30
2023-04-08T13:16:24.256Z,30.20
2023-04-08T13:18:53.787Z,22.80
2023-04-08T13:21:22.398Z,25.70
2023-04-08T13:23:51.213Z,23.70
2023-04-08T13:26:19.878Z,30.00
2023-04-08T13:28:56.635Z,22.00
2023-04-08T13:31:26.425Z,21.20
2023-04-08T13:33:58.005Z,22.70
2023-04-08T13:36:29.022Z,18.70
2023-04-08T13:38:57.949Z,22.70
2023-04-08T13:41:28.451Z,19.60
2023-04-08T13:43:57.373Z,18.80
2023-04-08T13:46:26.091Z,19.70
2023-04-08T13:48:55.165Z,21.90
2023-04-08T13:51:23.858Z,19.80
2023-04-08T13:53:52.637Z,21.40
2023-04-08T13:56:21.417Z,22.60
2023-04-08T13:58:56.447Z,32.20
2023-04-08T14:01:26.472Z,114.20
2023-04-08T14:03:55.154Z,156.40
2023-04-08T14:06:23.754Z,51.50
2023-04-08T14:08:52.666Z,25.40
2023-04-08T14:11:22.140Z,70.60
2023-04-08T14:13:50.637Z,29.40
2023-04-08T14:16:20.042Z,35.20
2023-04-08T14:18:49.021Z,26.00
2023-04-08T14:21:19.036Z,24.50
2023-04-08T14:23:47.725Z,23.50
2023-04-08T14:26:16.724Z,50.10
2023-04-08T14:28:45.403Z,34.60
2023-04-08T14:31:15.270Z,78.10
2023-04-08T14:33:43.803Z,42.70
2023-04-08T14:36:12.510Z,32.50
2023-04-08T14:38:41.483Z,51.10
2023-04-08T14:41:10.580Z,32.70
2023-04-08T14:43:39.062Z,35.30
2023-04-08T14:46:08.094Z,64.00
2023-04-08T14:48:36.743Z,39.50
2023-04-08T14:51:07.005Z,37.70
2023-04-08T14:53:35.755Z,24.40
2023-04-08T14:56:05.468Z,28.70
2023-04-08T14:58:34.151Z,30.50
2023-04-08T15:01:02.768Z,34.50
2023-04-08T15:03:31.504Z,53.70
2023-04-08T15:06:01.547Z,48.80
2023-04-08T15:08:30.232Z,86.40
2023-04-08T15:10:58.813Z,31.20
2023-04-08T15:13:27.396Z,39.00
2023-04-08T15:15:56.129Z,54.00
2023-04-08T15:18:24.883Z,34.90
2023-04-08T15:20:53.562Z,50.00
2023-04-08T15:23:22.366Z,35.80
2023-04-08T15:25:51.428Z,29.30
2023-04-08T15:28:21.057Z,26.40
2023-04-08T15:30:50.708Z,24.70
2023-04-08T15:33:20.377Z,23.00
2023-04-08T15:35:48.974Z,21.90
2023-04-08T15:38:17.953Z,20.50
2023-04-08T15:40:48.191Z,26.60
2023-04-08T15:43:17.078Z,23.90
2023-04-08T15:45:46.751Z,26.40
2023-04-08T15:48:15.777Z,24.00
2023-04-08T15:50:44.282Z,26.10
2023-04-08T15:53:13.050Z,22.70
2023-04-08T15:55:42.367Z,27.00
2023-04-08T15:58:10.961Z,27.90
2023-04-08T16:00:39.822Z,31.10
2023-04-08T16:03:12.247Z,26.80
2023-04-08T16:05:42.207Z,43.90
2023-04-08T16:08:10.795Z,47.30
2023-04-08T16:10:39.374Z,34.80
2023-04-08T16:13:07.859Z,27.60
2023-04-08T16:15:36.543Z,29.40
2023-04-08T16:18:06.776Z,37.20
2023-04-08T16:20:39.144Z,33.30
2023-04-08T16:23:07.731Z,33.20
2023-04-08T16:25:36.921Z,32.50
2023-04-08T16:28:05.614Z,41.80
2023-04-08T16:30:36.566Z,53.50
2023-04-08T16:33:06.462Z,42.60
2023-04-08T16:35:36.003Z,38.80
2023-04-08T16:38:04.971Z,34.00
2023-04-08T16:40:34.209Z,31.20
2023-04-08T16:43:05.026Z,46.10
2023-04-08T16:45:33.636Z,32.30
2023-04-08T16:48:02.818Z,29.40
2023-04-08T16:50:31.578Z,40.00
2023-04-08T16:53:00.161Z,35.40
2023-04-08T16:55:36.153Z,36.60
2023-04-08T16:58:05.215Z,36.10
2023-04-08T17:00:34.112Z,29.40
2023-04-08T17:03:02.866Z,23.20
2023-04-08T17:05:32.095Z,22.20
2023-04-08T17:08:01.235Z,30.30
2023-04-08T17:10:29.879Z,26.70
2023-04-08T17:12:58.565Z,23.00
2023-04-08T17:15:27.487Z,26.50
2023-04-08T17:17:56.267Z,55.80
2023-04-08T17:20:26.780Z,44.40
2023-04-08T17:22:55.363Z,24.60
2023-04-08T17:25:24.878Z,23.30
2023-04-08T17:27:53.468Z,23.80
2023-04-08T17:30:22.354Z,25.40
2023-04-08T17:32:50.916Z,25.30
2023-04-08T17:35:19.618Z,27.30
2023-04-08T17:37:48.618Z,31.00
2023-04-08T17:40:17.895Z,34.10
2023-04-08T17:42:46.909Z,35.90
2023-04-08T17:45:15.682Z,36.50
2023-04-08T17:47:44.218Z,36.00
2023-04-08T17:50:12.972Z,48.20
2023-04-08T17:52:48.044Z,60.10
2023-04-08T17:55:17.016Z,68.60
2023-04-08T17:57:45.579Z,70.20
2023-04-08T18:00:14.552Z,58.60
2023-04-08T18:02:43.314Z,53.10
2023-04-08T18:05:12.461Z,46.90
2023-04-08T18:07:41.145Z,35.00
2023-04-08T18:10:10.209Z,31.50
2023-04-08T18:12:38.730Z,30.50
2023-04-08T18:15:08.403Z,28.20
2023-04-08T18:17:36.941Z,26.70
2023-04-08T18:20:07.142Z,25.90
2023-04-08T18:22:35.624Z,39.40
2023-04-08T18:25:05.467Z,52.10
2023-04-08T18:27:34.431Z,67.40
2023-04-08T18:30:02.933Z,76.60
2023-04-08T18:32:31.530Z,74.00
2023-04-08T18:35:00.384Z,83.20
2023-04-08T18:37:30.610Z,73.10
2023-04-08T18:40:00.013Z,49.40
2023-04-08T18:42:28.747Z,37.40
2023-04-08T18:44:57.290Z,34.70
2023-04-08T18:47:25.895Z,43.60
2023-04-08T18:49:54.659Z,43.50
2023-04-08T18:52:23.266Z,38.20
2023-04-08T18:54:51.930Z,43.70
2023-04-08T18:57:20.624Z,47.80
2023-04-08T18:59:49.311Z,47.70
2023-04-08T19:02:17.929Z,48.70
2023-04-08T19:04:47.019Z,49.80
2023-04-08T19:07:17.313Z,55.50
2023-04-08T19:09:46.132Z,58.90
2023-04-08T19:12:14.783Z,76.70
2023-04-08T19:14:43.369Z,121.20
2023-04-08T19:17:12.156Z,126.90
2023-04-08T19:19:40.861Z,82.00
2023-04-08T19:22:09.327Z,61.50
2023-04-08T19:24:38.012Z,84.40
2023-04-08T19:27:06.708Z,97.40
2023-04-08T19:29:35.283Z,104.60
2023-04-08T19:32:04.480Z,100.80
2023-04-08T19:34:38.469Z,91.30
2023-04-08T19:37:07.595Z,96.10
2023-04-08T19:39:36.274Z,86.90
2023-04-08T19:42:05.381Z,83.40
2023-04-08T19:44:34.063Z,92.80
2023-04-08T19:47:02.958Z,101.70
2023-04-08T19:49:31.537Z,116.80
2023-04-08T19:52:00.327Z,113.20
2023-04-08T19:54:30.444Z,106.10
2023-04-08T19:56:59.541Z,108.30
2023-04-08T19:59:28.233Z,102.40
2023-04-08T20:01:56.808Z,99.00
2023-04-08T20:04:25.712Z,93.90
2023-04-08T20:06:54.700Z,110.10
2023-04-08T20:09:23.399Z,99.20
2023-04-08T20:11:52.487Z,97.40
2023-04-08T20:14:21.170Z,99.70
2023-04-08T20:16:49.855Z,88.30
2023-04-08T20:19:18.445Z,96.30
2023-04-08T20:21:47.139Z,99.50
2023-04-08T20:24:16.577Z,95.70
2023-04-08T20:26:45.427Z,92.30
2023-04-08T20:29:13.915Z,99.10
2023-04-08T20:31:43.844Z,110.20
2023-04-08T20:34:13.128Z,97.50
2023-04-08T20:36:41.608Z,99.50
2023-04-08T20:39:11.165Z,84.60
2023-04-08T20:41:40.010Z,86.00
2023-04-08T20:44:10.804Z,75.80
2023-04-08T20:46:40.152Z,68.20
2023-04-08T20:49:08.856Z,68.20
2023-04-08T20:51:37.518Z,68.30
2023-04-08T20:54:06.109Z,73.00
2023-04-08T20:56:34.790Z,97.30
2023-04-08T20:59:03.479Z,109.80
2023-04-08T21:01:32.296Z,110.70
2023-04-08T21:04:01.168Z,117.80
2023-04-08T21:06:29.637Z,110.50
2023-04-08T21:08:58.531Z,84.30
2023-04-08T21:11:28.867Z,79.30
2023-04-08T21:13:57.441Z,96.40
2023-04-08T21:16:26.133Z,94.30
2023-04-08T21:18:55.119Z,103.80
2023-04-08T21:21:23.628Z,94.70
2023-04-08T21:23:52.286Z,89.60
2023-04-08T21:26:22.211Z,70.90
2023-04-08T21:28:51.301Z,84.00
2023-04-08T21:31:19.915Z,80.90
2023-04-08T21:33:48.670Z,81.50
2023-04-08T21:36:17.486Z,81.40
2023-04-08T21:38:46.145Z,109.00
2023-04-08T21:41:14.733Z,107.20
2023-04-08T21:43:43.315Z,97.10
2023-04-08T21:46:12.123Z,108.10
2023-04-08T21:48:40.894Z,111.40
2023-04-08T21:51:09.477Z,104.70
2023-04-08T21:53:39.081Z,108.50
2023-04-08T21:56:08.602Z,99.70
2023-04-08T21:58:37.179Z,102.60
2023-04-08T22:01:05.785Z,104.00
2023-04-08T22:03:34.675Z,89.10
2023-04-08T22:06:03.655Z,83.60
2023-04-08T22:08:32.863Z,88.40
2023-04-08T22:11:01.429Z,92.40
2023-04-08T22:13:30.026Z,86.10
2023-04-08T22:15:58.500Z,89.90
2023-04-08T22:18:27.595Z,84.80
2023-04-08T22:20:56.383Z,86.10
2023-04-08T22:23:24.983Z,84.30
2023-04-08T22:25:53.654Z,85.90
2023-04-08T22:28:22.550Z,78.50
2023-04-08T22:30:51.183Z,80.10
2023-04-08T22:33:19.819Z,89.70
2023-04-08T22:35:48.431Z,87.80
2023-04-08T22:38:17.408Z,98.70
2023-04-08T22:40:46.292Z,94.80
2023-04-08T22:43:14.776Z,96.30
2023-04-08T22:45:43.356Z,95.30
2023-04-08T22:48:11.943Z,97.10
2023-04-08T22:50:41.572Z,93.90
2023-04-08T22:53:10.236Z,91.50
2023-04-08T22:55:38.927Z,87.60
2023-04-08T22:58:07.507Z,83.80
2023-04-08T23:00:36.301Z,82.20
2023-04-08T23:03:05.079Z,81.70
2023-04-08T23:05:33.992Z,87.00
2023-04-08T23:08:02.767Z,82.50
2023-04-08T23:10:31.587Z,88.90
2023-04-08T23:13:00.143Z,84.50
2023-04-08T23:15:28.928Z,81.00
2023-04-08T23:17:57.660Z,89.60
2023-04-08T23:20:26.406Z,77.10
2023-04-08T23:22:54.987Z,79.40
2023-04-08T23:25:23.571Z,83.50
2023-04-08T23:27:52.261Z,81.00
2023-04-08T23:30:21.194Z,85.20
2023-04-08T23:32:49.677Z,76.90
2023-04-08T23:35:18.633Z,70.70
2023-04-08T23:37:47.319Z,71.20
2023-04-08T23:40:16.208Z,66.40
2023-04-08T23:42:44.692Z,71.30
2023-04-08T23:45:13.384Z,68.10
2023-04-08T23:47:42.160Z,59.00
2023-04-08T23:50:11.165Z,59.20
2023-04-08T23:52:39.910Z,72.30
2023-04-08T23:55:09.386Z,66.50
2023-04-08T23:57:37.844Z,75.40
